Daily Bio-Meteorological Summary

Last 30 Days

Daily Data | America/Los_Angeles
as of 2/2/23 6:06 AM PST
Date Daily Max Temp (°F) Daily Min Temp (°F) Daily Rain (In) GDDs (DL) GDDs (Mx/Mn) Chilling <=45F (hrs) Chill Hrs 32-45F (hrs) Utah Chilling (Units) Chilling <=45F Seas (hrs) Chill Hrs 32-45 Seas (hrs) Utah Chilling Seas (Units) Chill Portions Hrs 70-85F (hrs) Hrs > 95F (hrs) Powdery Mildew Stress (pts) Bee Hrs Today (Hrs) Hrs <= 32F (hrs) Hrs <= 28F (hrs)
2/1/23 66.5 30.1 0.00 2.9 0.0 15.5 11.1 6.0 1,015 975 706 57 0.00 0.00 0 6.4 4.4 0.0
1/31/23 58.7 32.6 0.00 1.0 0.0 16.2 16.2 0.0 999 964 701 56 0.00 0.00 - 2.4 0.0 0.0
1/30/23 52.6 34.5 0.00 0.0 0.0 20.2 20.2 22.5 983 947 696 56 0.00 0.00 - 0.0 0.0 0.0
1/29/23 56.6 34.3 0.00 0.6 0.0 9.8 9.8 7.5 963 927 674 55 0.00 0.00 - 0.8 0.0 0.0
1/28/23 64.0 32.9 0.00 2.9 0.0 14.6 14.6 6.5 953 917 668 54 0.00 0.00 - 6.7 0.0 0.0
1/27/23 66.0 32.1 0.00 3.2 0.0 14.4 14.4 6.5 939 903 662 53 0.00 0.00 - 6.7 0.0 0.0
1/26/23 66.4 31.5 0.00 3.4 0.0 13.9 13.4 6.5 924 888 656 52 0.00 0.00 - 6.6 0.5 0.0
1/25/23 63.4 30.5 0.00 2.4 0.0 15.4 12.6 6.5 910 875 651 52 0.00 0.00 - 5.9 2.9 0.0
1/24/23 63.9 30.3 0.00 2.2 0.0 15.7 11.5 6.0 895 862 646 51 0.00 0.00 - 5.0 4.2 0.0
1/23/23 59.4 31.4 0.01 1.3 0.0 16.3 15.6 6.5 879 851 640 51 0.00 0.00 - 1.8 0.6 0.0
1/22/23 48.2 32.2 0.00 0.0 0.0 15.8 15.8 16.0 863 835 634 50 0.00 0.00 - 0.0 0.0 0.0
1/21/23 59.1 30.6 0.00 1.2 0.0 16.1 14.1 7.5 847 819 618 50 0.00 0.00 - 2.8 2.0 0.0
1/20/23 59.9 36.1 0.00 1.2 0.0 15.5 15.5 7.5 831 805 612 49 0.00 0.00 - 2.7 0.0 0.0
1/19/23 50.1 40.0 0.11 0.0 0.0 12.3 12.3 23.0 816 790 606 49 0.00 0.00 - 0.0 0.0 0.0
1/18/23 61.6 32.6 0.01 1.7 0.0 15.9 15.9 7.5 803 778 584 48 0.00 0.00 - 3.6 0.0 0.0
1/17/23 57.1 37.9 0.08 0.4 0.0 14.2 14.2 20.5 787 762 577 48 0.00 0.00 - 0.7 0.0 0.0
1/16/23 61.0 43.8 0.19 2.1 2.4 2.8 2.8 14.5 773 747 558 48 0.00 0.00 - 0.2 0.0 0.0
1/15/23 55.5 44.9 0.05 1.0 0.2 0.0 0.0 7.0 770 745 544 47 0.00 0.00 - 0.2 0.0 0.0
1/14/23 55.6 48.8 0.47 2.1 2.2 0.0 0.0 4.0 770 745 538 46 0.00 0.00 - 0.0 0.0 0.0
1/13/23 62.6 46.5 0.01 3.6 4.6 0.0 0.0 3.5 770 745 534 45 0.00 0.00 - 7.1 0.0 0.0
1/12/23 66.7 40.7 0.00 4.1 3.7 5.8 5.8 3.0 770 745 532 45 0.00 0.00 - 6.8 0.0 0.0
1/11/23 59.3 41.2 0.00 2.3 0.3 8.1 8.1 4.0 764 739 529 44 0.00 0.00 - 6.1 0.0 0.0
1/10/23 64.0 43.4 0.38 3.8 3.7 0.7 0.7 4.5 756 731 526 44 0.00 0.00 - 1.3 0.0 0.0
1/9/23 61.6 53.6 1.38 7.7 7.6 0.0 0.0 -1.0 756 730 522 43 0.00 0.00 - 0.0 0.0 0.0
1/8/23 64.9 48.2 0.09 7.1 6.5 0.0 0.0 0.0 756 730 523 43 0.00 0.00 - 5.5 0.0 0.0
1/7/23 66.9 41.6 0.00 3.6 4.2 6.8 6.8 2.5 756 730 524 43 0.00 0.00 - 6.0 0.0 0.0
1/6/23 63.6 35.9 0.00 2.3 0.0 12.3 12.3 6.5 749 723 522 43 0.00 0.00 - 5.7 0.0 0.0
1/5/23 65.8 42.0 0.89 2.5 3.9 1.1 1.1 7.5 737 711 516 42 0.00 0.00 - 2.7 0.0 0.0
1/4/23 68.5 40.7 0.07 5.6 4.6 4.5 4.5 0.0 736 710 510 41 0.00 0.00 - 7.5 0.0 0.0
1/3/23 63.6 41.2 0.00 3.2 2.4 5.5 5.5 6.0 731 705 510 41 0.00 0.00 - 6.8 0.0 0.0
Max 68.5 53.6 1.38 7.7 7.6 20.2 20.2 23.0 - - - 57 0.00 0.00 - 7.5 4.4 0.0
Avg - - - 2.5 1.5 9.6 9.2 7.3 - - - 48 0.00 0.00 - 3.6 0.5 0.0
Min 48.2 30.1 0.00 0.0 0.0 0.0 0.0 -1.0 - - - 41 0.00 0.00 - 0.0 0.0 0.0
Total - - - 75.3 46.2 289.3 274.8 218.5 - - - - 0.00 0.00 - 108.1 14.5 0.0